createdAt,value
2023-05-24T00:01:15.036Z,98752.77
2023-05-24T00:04:19.102Z,98755.07
2023-05-24T00:07:22.310Z,98753.29
2023-05-24T00:10:26.497Z,98752.11
2023-05-24T00:13:29.350Z,98748.87
2023-05-24T00:16:32.599Z,98747.80
2023-05-24T00:19:38.614Z,98747.52
2023-05-24T00:22:41.904Z,98748.20
2023-05-24T00:25:44.750Z,98750.63
2023-05-24T00:28:47.560Z,98750.55
2023-05-24T00:31:50.616Z,98749.19
2023-05-24T00:34:53.477Z,98746.76
2023-05-24T00:37:57.355Z,98745.66
2023-05-24T00:41:01.442Z,98743.45
2023-05-24T00:44:04.334Z,98747.52
2023-05-24T00:47:08.000Z,98748.65
2023-05-24T00:50:14.334Z,98750.62
2023-05-24T00:53:17.246Z,98750.71
2023-05-24T00:56:20.698Z,98748.85
2023-05-24T00:59:24.177Z,98752.10
2023-05-24T01:03:27.741Z,98752.68
2023-05-24T01:07:57.972Z,98757.58
2023-05-24T01:12:26.562Z,98756.23
2023-05-24T01:16:53.295Z,98769.85
2023-05-24T01:21:16.734Z,98772.95
2023-05-24T01:25:43.341Z,98767.63
2023-05-24T01:29:56.532Z,98762.56
2023-05-24T01:34:18.912Z,98761.30
2023-05-24T01:38:42.937Z,98760.84
2023-05-24T01:43:22.222Z,98757.02
2023-05-24T01:47:54.959Z,98759.39
2023-05-24T01:52:24.961Z,98763.44
2023-05-24T01:56:51.896Z,98768.55
2023-05-24T02:01:16.175Z,98770.10
2023-05-24T02:05:34.062Z,98765.65
2023-05-24T02:09:57.901Z,98765.27
2023-05-24T02:14:21.745Z,98767.20
2023-05-24T02:18:15.361Z,98769.56
2023-05-24T02:22:39.260Z,98763.83
2023-05-24T02:26:56.193Z,98761.67
2023-05-24T02:31:20.121Z,98761.55
2023-05-24T02:35:43.658Z,98763.55
2023-05-24T02:39:38.189Z,98762.27
2023-05-24T02:44:01.978Z,98772.20
2023-05-24T02:48:25.944Z,98770.33
2023-05-24T02:52:31.906Z,98773.80
2023-05-24T02:56:55.849Z,98777.26
2023-05-24T03:01:19.993Z,98774.48
2023-05-24T03:05:43.812Z,98783.52
2023-05-24T03:10:07.568Z,98788.64
2023-05-24T03:14:24.263Z,98792.95
2023-05-24T03:18:48.030Z,98797.51
2023-05-24T03:23:11.851Z,98798.14
2023-05-24T03:27:35.864Z,98802.30
2023-05-24T03:32:00.130Z,98804.88
2023-05-24T03:36:23.597Z,98803.99
2023-05-24T03:40:47.646Z,98802.59
2023-05-24T03:45:19.294Z,98804.50
2023-05-24T03:49:45.555Z,98805.61
2023-05-24T03:54:09.471Z,98808.70
2023-05-24T03:58:13.656Z,98810.84
2023-05-24T04:02:37.037Z,98810.27
2023-05-24T04:06:43.788Z,98815.93
2023-05-24T04:11:08.119Z,98818.52
2023-05-24T04:14:53.051Z,98822.10
2023-05-24T04:19:16.577Z,98820.69
2023-05-24T04:23:40.570Z,98831.27
2023-05-24T04:28:04.465Z,98839.95
2023-05-24T04:32:20.158Z,98845.82
2023-05-24T04:36:31.222Z,98849.10
2023-05-24T04:40:55.852Z,98855.69
2023-05-24T04:45:22.763Z,98865.61
2023-05-24T04:49:46.758Z,98867.88
2023-05-24T04:54:10.637Z,98871.62
2023-05-24T04:58:23.338Z,98879.08
2023-05-24T05:02:29.940Z,98876.15
2023-05-24T05:06:49.026Z,98875.15
2023-05-24T05:11:12.893Z,98882.35
2023-05-24T05:15:14.142Z,98884.16
2023-05-24T05:19:38.021Z,98886.22
2023-05-24T05:23:44.446Z,98894.21
2023-05-24T05:28:08.269Z,98902.92
2023-05-24T05:32:14.883Z,98907.73
2023-05-24T05:36:38.814Z,98906.61
2023-05-24T05:40:35.177Z,98911.66
2023-05-24T05:44:37.434Z,98917.90
2023-05-24T05:48:33.357Z,98917.73
2023-05-24T05:52:55.497Z,98925.02
2023-05-24T05:57:18.126Z,98927.55
2023-05-24T06:01:42.060Z,98929.84
2023-05-24T06:05:56.587Z,98933.19
2023-05-24T06:09:43.224Z,98934.27
2023-05-24T06:13:53.284Z,98941.09
2023-05-24T06:18:17.248Z,98937.73
2023-05-24T06:22:18.762Z,98947.91
2023-05-24T06:26:34.174Z,98947.27
2023-05-24T06:30:29.655Z,98954.97
2023-05-24T06:34:34.319Z,98962.84
2023-05-24T06:38:29.590Z,98966.90
2023-05-24T06:42:24.784Z,98976.29
2023-05-24T06:46:13.819Z,98980.39
2023-05-24T06:50:09.209Z,98986.53
2023-05-24T06:54:22.981Z,98990.75
2023-05-24T06:58:25.873Z,98997.05
2023-05-24T07:02:24.070Z,99005.70
2023-05-24T07:06:10.723Z,99007.30
2023-05-24T07:10:10.716Z,99010.15
2023-05-24T07:14:21.267Z,99022.01
2023-05-24T07:18:27.930Z,99024.57
2023-05-24T07:22:22.913Z,99024.08
2023-05-24T07:26:36.234Z,99037.77
2023-05-24T07:30:45.121Z,99042.92
2023-05-24T07:34:49.846Z,99045.32
2023-05-24T07:38:43.689Z,99040.15
2023-05-24T07:42:50.696Z,99051.82
2023-05-24T07:47:05.728Z,99050.52
2023-05-24T07:50:26.621Z,99054.45
2023-05-24T07:54:30.460Z,99057.89
2023-05-24T07:58:41.991Z,99059.25
2023-05-24T08:02:36.961Z,99058.13
2023-05-24T08:06:27.240Z,99064.94
2023-05-24T08:10:22.887Z,99069.11
2023-05-24T08:14:13.988Z,99070.07
2023-05-24T08:18:09.572Z,99074.95
2023-05-24T08:22:04.638Z,99078.79
2023-05-24T08:26:11.403Z,99088.48
2023-05-24T08:30:18.204Z,99095.70
2023-05-24T08:34:06.362Z,99095.63
2023-05-24T08:37:42.553Z,99098.43
2023-05-24T08:41:40.503Z,99099.86
2023-05-24T08:45:46.920Z,99108.13
2023-05-24T08:49:57.136Z,99112.70
2023-05-24T08:53:52.582Z,99115.64
2023-05-24T08:57:42.209Z,99111.84
2023-05-24T09:01:48.866Z,99120.70
2023-05-24T09:05:40.494Z,99125.61
2023-05-24T09:09:46.377Z,99131.65
2023-05-24T09:13:44.061Z,99138.61
2023-05-24T09:17:26.689Z,99152.99
2023-05-24T09:21:15.226Z,99154.33
2023-05-24T09:25:26.285Z,99160.96
2023-05-24T09:29:17.378Z,99161.94
2023-05-24T09:33:22.609Z,99168.83
2023-05-24T09:37:46.509Z,99169.10
2023-05-24T09:41:54.935Z,99177.89
2023-05-24T09:45:56.896Z,99178.05
2023-05-24T09:49:50.932Z,99174.95
2023-05-24T09:53:57.199Z,99178.49
2023-05-24T09:57:59.371Z,99185.64
2023-05-24T10:01:56.634Z,99187.01
2023-05-24T10:06:12.298Z,99191.40
2023-05-24T10:10:06.701Z,99189.17
2023-05-24T10:13:35.976Z,99193.67
2023-05-24T10:17:31.509Z,99198.39
2023-05-24T10:21:19.526Z,99197.28
2023-05-24T10:25:19.485Z,99197.98
2023-05-24T10:29:26.388Z,99202.68
2023-05-24T10:33:14.992Z,99207.65
2023-05-24T10:37:20.611Z,99209.73
2023-05-24T10:41:14.233Z,99216.34
2023-05-24T10:45:38.555Z,99220.20
2023-05-24T10:49:39.251Z,99219.23
2023-05-24T10:54:02.637Z,99224.02
2023-05-24T10:58:04.049Z,99226.35
2023-05-24T11:02:27.898Z,99235.38
2023-05-24T11:06:40.723Z,99239.21
2023-05-24T11:10:32.813Z,99237.65
2023-05-24T11:14:21.062Z,99242.05
2023-05-24T11:18:40.153Z,99246.34
2023-05-24T11:22:41.092Z,99242.56
2023-05-24T11:26:15.142Z,99247.46
2023-05-24T11:30:08.553Z,99252.42
2023-05-24T11:34:03.734Z,99252.54
2023-05-24T11:37:51.062Z,99250.89
2023-05-24T11:41:25.251Z,99258.15
2023-05-24T11:45:10.174Z,99255.23
2023-05-24T11:49:16.907Z,99255.17
2023-05-24T11:53:07.564Z,99259.30
2023-05-24T11:56:44.331Z,99257.21
2023-05-24T12:00:40.739Z,99255.83
2023-05-24T12:04:36.770Z,99261.38
2023-05-24T12:08:30.355Z,99273.02
2023-05-24T12:12:30.924Z,99275.31
2023-05-24T12:16:38.940Z,99274.35
2023-05-24T12:20:31.494Z,99275.70
2023-05-24T12:24:54.508Z,99282.48
2023-05-24T12:29:06.666Z,99284.70
2023-05-24T12:32:55.865Z,99284.48
2023-05-24T12:36:59.022Z,99286.48
2023-05-24T12:41:21.574Z,99292.02
2023-05-24T12:45:35.978Z,99293.53
2023-05-24T12:49:32.023Z,99291.17
2023-05-24T12:53:38.033Z,99291.71
2023-05-24T12:57:50.783Z,99290.81
2023-05-24T13:02:14.707Z,99295.10
2023-05-24T13:06:03.612Z,99288.59
2023-05-24T13:10:00.972Z,99298.61
2023-05-24T13:14:00.505Z,99292.35
2023-05-24T13:18:10.154Z,99289.77
2023-05-24T13:22:16.863Z,99290.23
2023-05-24T13:26:10.777Z,99291.40
2023-05-24T13:30:27.623Z,99294.89
2023-05-24T13:34:33.413Z,99295.71
2023-05-24T13:39:13.467Z,99298.91
2023-05-24T13:43:17.672Z,99291.15
2023-05-24T13:47:40.295Z,99296.43
2023-05-24T13:51:57.229Z,99297.28
2023-05-24T13:56:22.073Z,99305.10
2023-05-24T14:00:37.355Z,99307.20
2023-05-24T14:04:50.357Z,99304.80
2023-05-24T14:09:05.418Z,99302.23
2023-05-24T14:13:36.771Z,99299.69
2023-05-24T14:17:54.767Z,99293.88
2023-05-24T14:22:18.737Z,99298.91
2023-05-24T14:26:35.236Z,99303.17
2023-05-24T14:30:42.574Z,99302.61
2023-05-24T14:34:34.990Z,99306.02
2023-05-24T14:38:49.718Z,99309.86
2023-05-24T14:43:13.549Z,99313.82
2023-05-24T14:47:36.805Z,99311.71
2023-05-24T14:51:58.195Z,99317.17
2023-05-24T14:56:04.501Z,99319.91
2023-05-24T15:00:24.520Z,99319.14
2023-05-24T15:04:49.643Z,99323.34
2023-05-24T15:09:04.360Z,99325.53
2023-05-24T15:13:06.816Z,99330.52
2023-05-24T15:17:24.034Z,99332.19
2023-05-24T15:21:48.027Z,99334.77
2023-05-24T15:25:54.948Z,99334.61
2023-05-24T15:29:58.704Z,99337.45
2023-05-24T15:34:11.766Z,99337.98
2023-05-24T15:38:18.521Z,99345.17
2023-05-24T15:42:43.012Z,99345.96
2023-05-24T15:46:55.912Z,99345.24
2023-05-24T15:55:28.233Z,99351.13
2023-05-24T15:59:52.373Z,99349.38
2023-05-24T16:04:16.325Z,99351.45
2023-05-24T16:08:30.180Z,99359.02
2023-05-24T16:12:38.983Z,99367.19
2023-05-24T16:16:55.393Z,99375.10
2023-05-24T16:21:20.777Z,99368.63
2023-05-24T16:25:43.664Z,99377.03
2023-05-24T16:30:07.888Z,99382.84
2023-05-24T16:34:36.600Z,99384.54
2023-05-24T16:39:08.057Z,99386.44
2023-05-24T16:43:22.979Z,99384.92
2023-05-24T16:47:39.566Z,99388.22
2023-05-24T16:52:03.906Z,99389.52
2023-05-24T16:56:28.197Z,99394.73
2023-05-24T17:00:52.402Z,99397.55
2023-05-24T17:05:16.319Z,99405.81
2023-05-24T17:09:39.341Z,99416.98
2023-05-24T17:13:54.039Z,99415.86
2023-05-24T17:18:18.438Z,99422.19
2023-05-24T17:22:42.541Z,99424.69
2023-05-24T17:27:06.709Z,99439.11
2023-05-24T17:31:13.556Z,99441.45
2023-05-24T17:35:37.842Z,99444.32
2023-05-24T17:39:06.104Z,99445.05
2023-05-24T17:43:28.689Z,99440.12
2023-05-24T17:47:26.105Z,99438.95
2023-05-24T17:51:38.196Z,99448.88
2023-05-24T17:55:52.887Z,99448.98
2023-05-24T18:00:08.177Z,99458.52
2023-05-24T18:04:24.117Z,99454.24
2023-05-24T18:08:28.612Z,99448.11
2023-05-24T18:12:52.767Z,99445.85
2023-05-24T18:17:06.740Z,99450.30
2023-05-24T18:21:30.678Z,99469.08
2023-05-24T18:26:00.666Z,99472.41
2023-05-24T18:30:27.093Z,99467.02
2023-05-24T18:34:39.248Z,99468.75
2023-05-24T18:39:03.510Z,99476.79
2023-05-24T18:43:28.353Z,99478.28
2023-05-24T18:48:00.726Z,99484.45
2023-05-24T18:52:18.259Z,99490.40
2023-05-24T18:56:33.698Z,99499.18
2023-05-24T19:00:57.908Z,99502.27
2023-05-24T19:05:04.735Z,99506.88
2023-05-24T19:09:21.199Z,99511.45
2023-05-24T19:13:46.301Z,99515.47
2023-05-24T19:18:11.173Z,99511.48
2023-05-24T19:22:35.319Z,99507.59
2023-05-24T19:26:52.143Z,99508.08
2023-05-24T19:31:16.144Z,99503.84
2023-05-24T19:35:40.027Z,99517.77
2023-05-24T19:40:04.296Z,99533.58
2023-05-24T19:44:29.423Z,99538.70
2023-05-24T19:48:53.963Z,99542.48
2023-05-24T19:52:57.634Z,99536.53
2023-05-24T19:57:12.007Z,99536.55
2023-05-24T20:01:28.888Z,99538.03
2023-05-24T20:05:52.777Z,99539.17
2023-05-24T20:10:18.230Z,99537.06
2023-05-24T20:14:42.495Z,99539.98
2023-05-24T20:19:07.487Z,99546.16
2023-05-24T20:23:32.603Z,99546.05
2023-05-24T20:27:57.031Z,99543.68
2023-05-24T20:32:15.151Z,99543.14
2023-05-24T20:36:32.222Z,99543.64
2023-05-24T20:40:57.752Z,99546.99
2023-05-24T20:45:14.930Z,99544.69
2023-05-24T20:49:31.210Z,99543.00
2023-05-24T20:53:45.262Z,99550.79
2023-05-24T20:58:09.056Z,99545.80
2023-05-24T21:02:32.971Z,99538.00
2023-05-24T21:06:46.277Z,99525.36
2023-05-24T21:10:55.695Z,99529.27
2023-05-24T21:14:41.721Z,99534.25
2023-05-24T21:19:05.549Z,99531.63
2023-05-24T21:23:23.900Z,99526.17
2023-05-24T21:27:47.384Z,99522.59
2023-05-24T21:31:51.074Z,99530.17
2023-05-24T21:36:05.980Z,99531.24
2023-05-24T21:39:59.978Z,99545.16
2023-05-24T21:44:14.763Z,99541.70
2023-05-24T21:48:38.533Z,99546.95
2023-05-24T21:52:58.410Z,99559.07
2023-05-24T21:57:10.809Z,99562.33
2023-05-24T22:01:19.478Z,99562.70
2023-05-24T22:05:43.594Z,99554.95
2023-05-24T22:10:06.719Z,99551.44
2023-05-24T22:14:30.496Z,99552.73
2023-05-24T22:18:54.283Z,99554.73
2023-05-24T22:23:09.729Z,99555.80
2023-05-24T22:27:33.255Z,99558.88
2023-05-24T22:31:45.919Z,99554.44
2023-05-24T22:36:09.747Z,99558.53
2023-05-24T22:40:33.571Z,99567.80
2023-05-24T22:44:57.115Z,99574.23
2023-05-24T22:49:20.962Z,99573.54
2023-05-24T22:53:44.396Z,99569.80
2023-05-24T22:58:01.730Z,99575.50
2023-05-24T23:02:18.540Z,99580.52
2023-05-24T23:06:25.342Z,99576.95
2023-05-24T23:10:46.976Z,99575.36
2023-05-24T23:15:04.103Z,99581.33
2023-05-24T23:18:54.414Z,99586.21
2023-05-24T23:23:08.614Z,99593.89
2023-05-24T23:27:32.535Z,99593.44
2023-05-24T23:31:46.204Z,99597.90
2023-05-24T23:35:51.130Z,99598.95
2023-05-24T23:40:09.933Z,99594.05
2023-05-24T23:44:26.172Z,99593.02
2023-05-24T23:48:32.450Z,99590.35
2023-05-24T23:52:36.397Z,99597.33
2023-05-24T23:56:52.312Z,99605.01
